createdAt,value
2018-02-19T00:02:29.370Z,14.10
2018-02-19T00:05:00.390Z,16.52
2018-02-19T00:07:31.331Z,19.00
2018-02-19T00:10:02.384Z,15.50
2018-02-19T00:12:33.376Z,15.30
2018-02-19T00:15:04.412Z,17.75
2018-02-19T00:17:35.392Z,16.87
2018-02-19T00:20:06.425Z,16.83
2018-02-19T00:22:37.400Z,16.50
2018-02-19T00:25:08.422Z,14.00
2018-02-19T00:27:39.392Z,12.98
2018-02-19T00:30:10.394Z,15.87
2018-02-19T00:32:41.389Z,14.13
2018-02-19T00:35:12.413Z,15.82
2018-02-19T00:37:43.367Z,13.15
2018-02-19T00:40:14.407Z,16.07
2018-02-19T00:42:45.407Z,13.43
2018-02-19T00:45:16.454Z,14.18
2018-02-19T00:47:47.436Z,13.57
2018-02-19T00:50:18.496Z,14.97
2018-02-19T00:52:49.449Z,14.87
2018-02-19T00:55:20.531Z,15.80
2018-02-19T00:57:51.505Z,17.62
2018-02-19T01:00:22.822Z,14.60
2018-02-19T01:02:53.758Z,14.15
2018-02-19T01:05:24.838Z,16.67
2018-02-19T01:07:55.810Z,14.95
2018-02-19T01:10:26.825Z,19.57
2018-02-19T01:12:57.844Z,15.90
2018-02-19T01:15:28.810Z,14.63
2018-02-19T01:17:59.820Z,14.90
2018-02-19T01:20:30.874Z,13.85
2018-02-19T01:23:01.859Z,13.62
2018-02-19T01:25:32.908Z,16.07
2018-02-19T01:28:03.878Z,14.10
2018-02-19T01:30:34.903Z,15.63
2018-02-19T01:33:05.857Z,13.40
2018-02-19T01:35:36.941Z,18.53
2018-02-19T01:38:07.918Z,14.45
2018-02-19T01:40:38.955Z,15.03
2018-02-19T01:43:09.963Z,15.45
2018-02-19T01:45:40.948Z,15.35
2018-02-19T01:48:11.948Z,13.00
2018-02-19T01:50:42.932Z,15.02
2018-02-19T01:53:13.922Z,13.20
2018-02-19T01:55:44.927Z,13.52
2018-02-19T01:58:15.937Z,15.10
2018-02-19T02:00:47.032Z,11.65
2018-02-19T02:03:18.041Z,11.05
2018-02-19T02:05:49.007Z,14.75
2018-02-19T02:08:20.012Z,13.73
2018-02-19T02:10:50.967Z,10.70
2018-02-19T02:13:22.046Z,12.40
2018-02-19T02:15:53.009Z,12.13
2018-02-19T02:18:24.077Z,14.83
2018-02-19T02:20:55.049Z,13.30
2018-02-19T02:23:26.068Z,19.67
2018-02-19T02:25:57.354Z,14.43
2018-02-19T02:28:28.352Z,12.40
2018-02-19T02:30:59.350Z,14.02
2018-02-19T02:33:30.377Z,12.85
2018-02-19T02:36:01.353Z,12.82
2018-02-19T02:38:32.346Z,10.83
2018-02-19T02:41:03.303Z,13.20
2018-02-19T02:43:34.373Z,14.87
2018-02-19T02:46:05.316Z,13.20
2018-02-19T02:48:36.314Z,14.70
2018-02-19T02:51:07.332Z,13.32
2018-02-19T02:53:38.365Z,13.07
2018-02-19T02:56:09.347Z,10.82
2018-02-19T02:58:40.305Z,11.87
2018-02-19T03:01:11.357Z,13.03
2018-02-19T03:03:42.330Z,13.00
2018-02-19T03:06:13.411Z,13.90
2018-02-19T03:08:44.432Z,12.77
2018-02-19T03:11:15.400Z,9.77
2018-02-19T03:13:46.367Z,12.33
2018-02-19T03:16:17.357Z,12.40
2018-02-19T03:18:48.353Z,11.90
2018-02-19T03:21:19.326Z,11.93
2018-02-19T03:23:50.306Z,12.37
2018-02-19T03:26:21.249Z,12.83
2018-02-19T03:28:52.248Z,12.13
2018-02-19T03:31:23.234Z,15.73
2018-02-19T03:33:54.229Z,13.95
2018-02-19T03:36:25.270Z,12.30
2018-02-19T03:38:56.280Z,13.85
2018-02-19T03:41:27.279Z,13.60
2018-02-19T03:43:58.247Z,12.07
2018-02-19T03:46:29.248Z,13.93
2018-02-19T03:49:00.200Z,13.35
2018-02-19T03:51:31.146Z,13.70
2018-02-19T03:54:02.211Z,14.00
2018-02-19T03:56:33.151Z,13.55
2018-02-19T03:59:04.113Z,12.20
2018-02-19T04:01:35.143Z,14.67
2018-02-19T04:04:06.169Z,13.65
2018-02-19T04:06:37.181Z,17.98
2018-02-19T04:09:08.122Z,15.20
2018-02-19T04:11:39.115Z,12.97
2018-02-19T04:14:10.076Z,15.05
2018-02-19T04:16:41.263Z,13.90
2018-02-19T04:19:12.285Z,12.52
2018-02-19T04:21:43.321Z,11.52
2018-02-19T04:24:14.296Z,12.88
2018-02-19T04:26:45.414Z,13.77
2018-02-19T04:29:16.410Z,13.57
2018-02-19T04:31:47.426Z,12.68
2018-02-19T04:34:18.422Z,16.23
2018-02-19T04:36:49.419Z,16.83
2018-02-19T04:39:20.352Z,14.07
2018-02-19T04:41:51.340Z,17.43
2018-02-19T04:44:36.323Z,16.17
2018-02-19T04:47:07.376Z,17.10
2018-02-19T04:49:38.347Z,14.40
2018-02-19T04:52:09.394Z,16.53
2018-02-19T04:54:40.389Z,15.32
2018-02-19T04:57:11.402Z,16.40
2018-02-19T04:59:42.413Z,15.00
2018-02-19T05:02:13.408Z,13.75
2018-02-19T05:04:44.389Z,15.93
2018-02-19T05:07:15.402Z,14.67
2018-02-19T05:09:46.367Z,14.32
2018-02-19T05:12:17.410Z,16.80
2018-02-19T05:14:48.381Z,16.17
2018-02-19T05:17:19.489Z,14.33
2018-02-19T05:19:50.491Z,15.10
2018-02-19T05:22:21.461Z,18.27
2018-02-19T05:24:52.442Z,15.90
2018-02-19T05:27:23.519Z,16.37
2018-02-19T05:29:54.516Z,15.70
2018-02-19T05:32:25.528Z,17.77
2018-02-19T05:34:56.551Z,16.05
2018-02-19T05:37:27.557Z,18.23
2018-02-19T05:39:58.538Z,16.00
2018-02-19T05:42:29.579Z,20.27
2018-02-19T05:45:00.619Z,21.85
2018-02-19T05:47:31.614Z,18.25
2018-02-19T05:50:02.695Z,16.85
2018-02-19T05:52:33.664Z,20.58
2018-02-19T05:55:04.648Z,19.47
2018-02-19T05:57:35.718Z,20.45
2018-02-19T06:00:06.713Z,16.52
2018-02-19T06:02:37.695Z,16.45
2018-02-19T06:05:08.688Z,18.52
2018-02-19T06:07:39.688Z,18.05
2018-02-19T06:10:10.787Z,17.62
2018-02-19T06:12:41.724Z,15.35
2018-02-19T06:15:12.725Z,16.57
2018-02-19T06:17:43.941Z,14.55
2018-02-19T06:20:14.923Z,15.25
2018-02-19T06:22:45.945Z,15.60
2018-02-19T06:25:16.980Z,16.95
2018-02-19T06:27:48.182Z,16.33
2018-02-19T06:30:19.169Z,15.00
2018-02-19T06:32:50.210Z,15.32
2018-02-19T06:35:21.179Z,11.25
2018-02-19T06:37:52.181Z,13.47
2018-02-19T06:40:23.175Z,11.70
2018-02-19T06:42:54.256Z,12.10
2018-02-19T06:45:25.230Z,13.75
2018-02-19T06:47:56.275Z,13.50
2018-02-19T06:50:27.270Z,13.82
2018-02-19T06:52:58.316Z,15.75
2018-02-19T06:55:29.342Z,15.30
2018-02-19T06:58:00.392Z,15.65
2018-02-19T07:00:31.364Z,16.65
2018-02-19T07:03:02.377Z,19.40
2018-02-19T07:05:33.380Z,11.55
2018-02-19T07:08:04.410Z,14.83
2018-02-19T07:10:35.420Z,17.05
2018-02-19T07:13:06.480Z,15.27
2018-02-19T07:15:37.485Z,13.23
2018-02-19T07:18:08.620Z,12.77
2018-02-19T07:20:39.645Z,13.68
2018-02-19T07:23:10.648Z,13.80
2018-02-19T07:25:41.718Z,15.52
2018-02-19T07:28:12.738Z,15.32
2018-02-19T07:30:43.727Z,14.65
2018-02-19T07:33:14.735Z,15.77
2018-02-19T07:35:45.763Z,14.48
2018-02-19T07:38:16.753Z,11.55
2018-02-19T07:40:47.804Z,13.53
2018-02-19T07:43:18.795Z,15.90
2018-02-19T07:45:49.860Z,15.67
2018-02-19T07:48:20.834Z,13.38
2018-02-19T07:50:51.849Z,11.77
2018-02-19T07:53:22.895Z,17.87
2018-02-19T07:55:53.879Z,14.77
2018-02-19T07:58:24.886Z,15.13
2018-02-19T08:00:55.891Z,12.65
2018-02-19T08:03:26.944Z,19.37
2018-02-19T08:05:57.915Z,14.10
2018-02-19T08:08:28.937Z,15.03
2018-02-19T08:10:59.945Z,14.25
2018-02-19T08:13:30.968Z,12.40
2018-02-19T08:16:01.947Z,13.27
2018-02-19T08:18:33.030Z,12.57
2018-02-19T08:21:04.058Z,12.57
2018-02-19T08:23:35.051Z,13.50
2018-02-19T08:26:06.067Z,12.57
2018-02-19T08:28:37.046Z,14.07
2018-02-19T08:31:08.074Z,11.93
2018-02-19T08:33:39.084Z,11.83
2018-02-19T08:36:10.083Z,11.50
2018-02-19T08:38:41.091Z,13.67
2018-02-19T08:41:12.070Z,12.23
2018-02-19T08:43:49.955Z,12.10
2018-02-19T08:46:20.976Z,13.33
2018-02-19T08:48:52.085Z,13.63
2018-02-19T08:51:23.125Z,13.73
2018-02-19T08:53:54.121Z,14.77
2018-02-19T08:56:25.127Z,13.37
2018-02-19T08:58:56.165Z,12.23
2018-02-19T09:01:27.211Z,13.33
2018-02-19T09:03:58.151Z,12.83
2018-02-19T09:06:29.186Z,14.57
2018-02-19T09:09:00.210Z,13.37
2018-02-19T09:11:31.243Z,13.67
2018-02-19T09:14:02.283Z,13.57
2018-02-19T09:16:33.289Z,13.70
2018-02-19T09:19:04.271Z,12.97
2018-02-19T09:21:35.297Z,12.37
2018-02-19T09:24:06.360Z,13.77
2018-02-19T09:26:37.315Z,12.73
2018-02-19T09:29:08.350Z,17.77
2018-02-19T09:31:39.325Z,15.97
2018-02-19T09:34:10.418Z,14.33
2018-02-19T09:36:41.375Z,13.80
2018-02-19T09:39:12.402Z,14.73
2018-02-19T09:41:43.480Z,13.40
2018-02-19T09:44:14.444Z,14.43
2018-02-19T09:46:45.417Z,14.93
2018-02-19T09:49:16.468Z,14.00
2018-02-19T09:51:47.490Z,13.73
2018-02-19T09:54:18.505Z,13.97
2018-02-19T09:56:49.500Z,15.20
2018-02-19T09:59:20.550Z,13.07
2018-02-19T10:01:51.551Z,14.73
2018-02-19T10:04:22.615Z,17.37
2018-02-19T10:06:53.672Z,13.17
2018-02-19T10:09:24.650Z,12.63
2018-02-19T10:11:55.655Z,13.53
2018-02-19T10:14:27.592Z,13.27
2018-02-19T10:16:58.650Z,13.17
2018-02-19T10:19:29.683Z,12.30
2018-02-19T10:22:00.735Z,12.80
2018-02-19T10:24:31.775Z,14.27
2018-02-19T10:27:02.752Z,12.47
2018-02-19T10:29:33.796Z,14.10
2018-02-19T10:32:04.797Z,12.73
2018-02-19T10:34:35.835Z,13.03
2018-02-19T10:37:06.918Z,12.67
2018-02-19T10:39:37.929Z,13.50
2018-02-19T10:42:08.969Z,12.77
2018-02-19T10:44:40.084Z,13.17
2018-02-19T10:47:11.127Z,11.97
2018-02-19T10:49:42.136Z,13.23
2018-02-19T10:52:13.148Z,12.80
2018-02-19T10:54:44.169Z,12.30
2018-02-19T10:57:15.250Z,13.27
2018-02-19T10:59:53.208Z,14.60
2018-02-19T11:02:24.208Z,12.30
2018-02-19T11:04:55.255Z,13.70
2018-02-19T11:07:26.256Z,14.03
2018-02-19T11:09:57.268Z,17.23
2018-02-19T11:12:28.270Z,14.60
2018-02-19T11:14:59.314Z,13.67
2018-02-19T11:17:30.280Z,13.63
2018-02-19T11:20:01.319Z,14.80
2018-02-19T11:22:32.311Z,12.87
2018-02-19T11:25:03.334Z,13.13
2018-02-19T11:27:34.313Z,13.73
2018-02-19T11:30:05.351Z,13.30
2018-02-19T11:32:36.300Z,14.70
2018-02-19T11:35:07.327Z,14.57
2018-02-19T11:37:38.319Z,15.90
2018-02-19T11:40:09.311Z,13.23
2018-02-19T11:42:40.453Z,13.97
2018-02-19T11:45:11.459Z,15.97
2018-02-19T11:47:42.468Z,13.47
2018-02-19T11:50:13.446Z,14.80
2018-02-19T11:52:44.487Z,13.83
2018-02-19T11:55:15.497Z,15.63
2018-02-19T11:57:46.571Z,14.23
2018-02-19T12:00:17.577Z,15.27
2018-02-19T12:02:48.621Z,14.23
2018-02-19T12:05:19.633Z,15.23
2018-02-19T12:07:50.599Z,14.17
2018-02-19T12:10:21.699Z,15.07
2018-02-19T12:12:52.659Z,14.87
2018-02-19T12:15:23.710Z,14.17
2018-02-19T12:17:54.750Z,13.43
2018-02-19T12:20:25.773Z,13.87
2018-02-19T12:22:56.791Z,18.70
2018-02-19T12:25:27.815Z,24.70
2018-02-19T12:27:58.831Z,24.17
2018-02-19T12:30:29.812Z,15.83
2018-02-19T12:33:00.871Z,16.87
2018-02-19T12:35:31.925Z,16.67
2018-02-19T12:38:02.960Z,14.30
2018-02-19T12:40:33.992Z,15.97
2018-02-19T12:43:05.021Z,18.23
2018-02-19T12:45:36.008Z,15.07
2018-02-19T12:48:07.064Z,16.67
2018-02-19T12:50:38.088Z,13.23
2018-02-19T12:53:09.122Z,18.50
2018-02-19T12:55:40.143Z,14.73
2018-02-19T12:58:11.130Z,16.83
2018-02-19T13:00:42.155Z,15.07
2018-02-19T13:03:13.179Z,20.50
2018-02-19T13:05:44.197Z,20.73
2018-02-19T13:08:15.191Z,14.80
2018-02-19T13:10:46.202Z,18.03
2018-02-19T13:13:17.152Z,16.37
2018-02-19T13:15:48.143Z,16.63
2018-02-19T13:18:19.139Z,17.23
2018-02-19T13:20:50.160Z,15.57
2018-02-19T13:23:21.170Z,18.27
2018-02-19T13:25:52.187Z,20.03
2018-02-19T13:28:23.192Z,20.07
2018-02-19T13:30:54.226Z,16.90
2018-02-19T13:33:25.246Z,18.07
2018-02-19T13:35:56.255Z,21.70
2018-02-19T13:38:27.240Z,18.97
2018-02-19T13:40:59.293Z,21.97
2018-02-19T13:43:35.160Z,21.23
2018-02-19T13:46:06.207Z,24.87
2018-02-19T13:48:37.286Z,20.83
2018-02-19T13:51:08.299Z,17.17
2018-02-19T13:53:39.343Z,19.23
2018-02-19T13:56:10.305Z,17.67
2018-02-19T13:58:41.387Z,15.83
2018-02-19T14:01:12.456Z,17.43
2018-02-19T14:03:43.418Z,21.07
2018-02-19T14:06:14.456Z,17.90
2018-02-19T14:08:45.421Z,19.67
2018-02-19T14:11:16.460Z,17.43
2018-02-19T14:13:47.522Z,17.03
2018-02-19T14:16:18.504Z,15.70
2018-02-19T14:18:49.546Z,15.97
2018-02-19T14:21:20.549Z,18.20
2018-02-19T14:23:51.621Z,15.70
2018-02-19T14:26:22.625Z,15.10
2018-02-19T14:28:53.582Z,14.43
2018-02-19T14:31:24.642Z,16.83
2018-02-19T14:33:55.630Z,23.60
2018-02-19T14:36:26.703Z,16.77
2018-02-19T14:38:57.851Z,15.57
2018-02-19T14:41:28.861Z,16.27
2018-02-19T14:43:59.848Z,18.47
2018-02-19T14:46:30.816Z,15.80
2018-02-19T14:49:01.879Z,21.17
2018-02-19T14:51:32.886Z,17.30
2018-02-19T14:54:03.961Z,18.33
2018-02-19T14:56:35.005Z,17.40
2018-02-19T14:59:06.049Z,20.13
2018-02-19T15:01:37.063Z,16.60
2018-02-19T15:04:08.052Z,15.73
2018-02-19T15:06:39.076Z,16.13
2018-02-19T15:09:10.064Z,17.10
2018-02-19T15:11:41.121Z,21.90
2018-02-19T15:14:12.139Z,18.83
2018-02-19T15:16:50.313Z,17.73
2018-02-19T15:19:21.281Z,19.27
2018-02-19T15:21:59.296Z,18.53
2018-02-19T15:24:30.260Z,16.73
2018-02-19T15:27:01.296Z,18.17
2018-02-19T15:29:32.299Z,16.40
2018-02-19T15:32:03.333Z,16.37
2018-02-19T15:34:34.456Z,17.03
2018-02-19T15:37:05.433Z,20.93
2018-02-19T15:39:36.443Z,25.77
2018-02-19T15:42:07.419Z,17.83
2018-02-19T15:44:38.456Z,16.33
2018-02-19T15:47:09.433Z,30.70
2018-02-19T15:49:40.474Z,19.90
2018-02-19T15:52:11.430Z,18.77
2018-02-19T15:54:42.447Z,17.43
2018-02-19T15:57:13.431Z,19.53
2018-02-19T15:59:44.435Z,17.43
2018-02-19T16:02:15.484Z,18.87
2018-02-19T16:04:46.534Z,19.53
2018-02-19T16:07:17.558Z,17.80
2018-02-19T16:09:48.571Z,20.73
2018-02-19T16:12:19.528Z,17.23
2018-02-19T16:14:50.522Z,20.70
2018-02-19T16:17:21.521Z,19.10
2018-02-19T16:19:52.497Z,18.60
2018-02-19T16:22:23.516Z,25.50
2018-02-19T16:24:54.511Z,22.07
2018-02-19T16:27:25.569Z,20.67
2018-02-19T16:29:56.557Z,18.27
2018-02-19T16:32:27.585Z,20.33
2018-02-19T16:34:58.632Z,19.67
2018-02-19T16:37:29.670Z,21.77
2018-02-19T16:40:00.682Z,20.60
2018-02-19T16:42:31.664Z,17.05
2018-02-19T16:45:02.768Z,22.10
2018-02-19T16:47:33.699Z,18.13
2018-02-19T16:50:04.692Z,17.00
2018-02-19T16:52:35.718Z,20.83
2018-02-19T16:55:06.718Z,18.87
2018-02-19T16:57:37.760Z,22.73
2018-02-19T17:00:08.786Z,18.80
2018-02-19T17:02:39.797Z,23.20
2018-02-19T17:05:10.831Z,19.47
2018-02-19T17:07:41.884Z,22.47
2018-02-19T17:10:12.881Z,20.27
2018-02-19T17:12:43.888Z,22.33
2018-02-19T17:15:14.905Z,18.57
2018-02-19T17:17:45.903Z,21.23
2018-02-19T17:20:16.952Z,23.20
2018-02-19T17:22:47.934Z,21.05
2018-02-19T17:25:19.017Z,20.60
2018-02-19T17:27:50.047Z,21.80
2018-02-19T17:30:21.085Z,18.97
2018-02-19T17:32:52.144Z,19.50
2018-02-19T17:35:30.252Z,23.17
2018-02-19T17:38:01.301Z,23.50
2018-02-19T17:40:33.128Z,22.75
2018-02-19T17:43:04.177Z,23.42
2018-02-19T17:45:35.223Z,22.35
2018-02-19T17:48:06.250Z,20.42
2018-02-19T17:50:37.261Z,22.25
2018-02-19T17:53:08.264Z,26.35
2018-02-19T17:55:39.257Z,23.97
2018-02-19T17:58:10.313Z,21.60
2018-02-19T18:00:41.335Z,23.12
2018-02-19T18:03:12.411Z,25.33
2018-02-19T18:05:43.477Z,20.73
2018-02-19T18:08:14.510Z,21.42
2018-02-19T18:10:47.070Z,25.17
2018-02-19T18:13:18.037Z,24.25
2018-02-19T18:15:49.655Z,28.13
2018-02-19T18:18:20.659Z,21.65
2018-02-19T18:20:51.640Z,20.90
2018-02-19T18:23:22.618Z,26.07
2018-02-19T18:25:53.572Z,22.50
2018-02-19T18:28:24.591Z,23.63
2018-02-19T18:30:55.596Z,24.63
2018-02-19T18:33:26.629Z,23.02
2018-02-19T18:35:57.645Z,22.05
2018-02-19T18:38:28.649Z,23.40
2018-02-19T18:40:59.684Z,24.27
2018-02-19T18:43:31.014Z,25.85
2018-02-19T18:46:02.270Z,23.92
2018-02-19T18:48:33.313Z,25.73
2018-02-19T18:51:04.340Z,24.25
2018-02-19T18:53:35.324Z,23.92
2018-02-19T18:56:06.349Z,24.43
2018-02-19T18:58:37.312Z,26.17
2018-02-19T19:01:09.652Z,25.27
2018-02-19T19:03:40.674Z,23.45
2018-02-19T19:06:11.690Z,24.12
2018-02-19T19:08:55.155Z,24.77
2018-02-19T19:11:26.157Z,25.95
2018-02-19T19:13:57.177Z,26.63
2018-02-19T19:16:28.165Z,29.63
2018-02-19T19:18:59.154Z,29.53
2018-02-19T19:21:30.136Z,31.80
2018-02-19T19:24:01.143Z,27.57
2018-02-19T19:26:32.126Z,26.92
2018-02-19T19:29:03.943Z,30.47
2018-02-19T19:31:35.028Z,29.92
2018-02-19T19:34:06.023Z,29.17
2018-02-19T19:36:37.031Z,30.30
2018-02-19T19:39:08.006Z,28.73
2018-02-19T19:41:39.045Z,28.60
2018-02-19T19:44:10.120Z,32.58
2018-02-19T19:46:41.073Z,34.40
2018-02-19T19:49:12.104Z,31.67
2018-02-19T19:51:43.122Z,32.50
2018-02-19T19:54:14.182Z,28.08
2018-02-19T19:56:45.199Z,28.12
2018-02-19T19:59:16.222Z,25.70
2018-02-19T20:01:47.185Z,30.33
2018-02-19T20:04:18.252Z,29.23
2018-02-19T20:06:49.245Z,30.48
2018-02-19T20:09:20.248Z,36.27
2018-02-19T20:11:51.197Z,32.83
2018-02-19T20:14:22.241Z,34.07
2018-02-19T20:16:53.241Z,32.05
2018-02-19T20:19:24.330Z,27.52
2018-02-19T20:21:55.365Z,31.83
2018-02-19T20:24:26.372Z,43.78
2018-02-19T20:26:57.489Z,28.12
2018-02-19T20:29:28.451Z,29.87
2018-02-19T20:31:59.457Z,27.33
2018-02-19T20:34:30.518Z,28.30
2018-02-19T20:37:01.590Z,30.90
2018-02-19T20:39:32.595Z,31.92
2018-02-19T20:42:03.634Z,26.60
2018-02-19T20:44:34.610Z,32.92
2018-02-19T20:47:05.729Z,32.10
2018-02-19T20:49:36.730Z,31.08
2018-02-19T20:52:07.771Z,34.30
2018-02-19T20:54:38.835Z,28.35
2018-02-19T20:57:09.917Z,30.17
2018-02-19T20:59:41.218Z,30.08
2018-02-19T21:02:12.262Z,30.65
2018-02-19T21:04:43.208Z,26.60
2018-02-19T21:07:14.240Z,26.33
2018-02-19T21:09:45.241Z,25.67
2018-02-19T21:12:16.291Z,22.53
2018-02-19T21:14:47.280Z,30.20
2018-02-19T21:17:18.292Z,29.40
2018-02-19T21:19:49.299Z,32.25
2018-02-19T21:22:20.315Z,30.02
2018-02-19T21:24:51.297Z,34.72
2018-02-19T21:27:22.322Z,39.67
2018-02-19T21:29:53.335Z,33.65
2018-02-19T21:32:24.353Z,32.53
2018-02-19T21:34:55.366Z,37.70
2018-02-19T21:37:26.405Z,35.33
2018-02-19T21:39:57.416Z,34.42
2018-02-19T21:42:28.397Z,34.05
2018-02-19T21:44:59.618Z,33.07
2018-02-19T21:47:30.594Z,37.95
2018-02-19T21:50:01.646Z,37.43
2018-02-19T21:52:32.673Z,37.15
2018-02-19T21:55:03.758Z,39.53
2018-02-19T21:57:34.735Z,40.47
2018-02-19T22:00:05.764Z,41.53
2018-02-19T22:02:37.489Z,35.65
2018-02-19T22:05:08.872Z,38.58
2018-02-19T22:07:39.861Z,34.40
2018-02-19T22:10:10.899Z,39.17
2018-02-19T22:12:41.922Z,39.80
2018-02-19T22:15:12.931Z,40.22
2018-02-19T22:17:43.949Z,35.92
2018-02-19T22:20:14.986Z,37.08
2018-02-19T22:22:45.976Z,36.50
2018-02-19T22:25:16.963Z,36.33
2018-02-19T22:27:47.934Z,38.77
2018-02-19T22:30:19.007Z,37.00
2018-02-19T22:32:49.989Z,36.40
2018-02-19T22:35:21.046Z,38.00
2018-02-19T22:37:52.027Z,38.25
2018-02-19T22:40:23.304Z,37.20
2018-02-19T22:42:54.337Z,36.58
2018-02-19T22:45:25.350Z,36.03
2018-02-19T22:47:56.401Z,38.83
2018-02-19T22:50:27.350Z,36.83
2018-02-19T22:52:58.366Z,36.93
2018-02-19T22:55:29.370Z,36.47
2018-02-19T22:58:00.363Z,34.63
2018-02-19T23:00:31.396Z,36.63
2018-02-19T23:03:02.423Z,35.42
2018-02-19T23:05:33.597Z,38.60
2018-02-19T23:08:04.615Z,37.17
2018-02-19T23:10:35.591Z,35.47
2018-02-19T23:13:06.613Z,35.93
2018-02-19T23:15:37.582Z,41.15
2018-02-19T23:18:08.624Z,36.63
2018-02-19T23:20:39.602Z,36.65
2018-02-19T23:23:10.643Z,39.10
2018-02-19T23:25:41.646Z,36.95
2018-02-19T23:28:12.642Z,35.47
2018-02-19T23:30:43.622Z,37.47
2018-02-19T23:33:14.678Z,40.93
2018-02-19T23:35:45.664Z,36.78
2018-02-19T23:38:16.710Z,36.37
2018-02-19T23:40:47.881Z,41.72
2018-02-19T23:43:18.938Z,36.30
2018-02-19T23:45:49.946Z,39.83
2018-02-19T23:48:20.975Z,37.55
2018-02-19T23:50:51.945Z,37.83
2018-02-19T23:53:22.946Z,37.87
2018-02-19T23:55:53.966Z,35.97
2018-02-19T23:58:24.945Z,35.95
